createdAt,value
2019-02-20T09:12:13.909Z,102120.16
2019-02-20T09:15:03.336Z,102122.52
2019-02-20T09:17:52.333Z,102119.77
2019-02-20T09:20:41.660Z,102125.37
2019-02-20T09:23:30.846Z,102123.37
2019-02-20T09:26:19.703Z,102116.89
2019-02-20T09:29:08.901Z,102120.52
2019-02-20T09:31:57.606Z,102122.27
2019-02-20T09:34:46.452Z,102126.25
2019-02-20T09:37:36.268Z,102113.94
2019-02-20T09:40:38.305Z,102119.94
2019-02-20T09:43:32.358Z,102124.16
2019-02-20T09:46:21.213Z,102124.52
2019-02-20T09:49:10.707Z,102122.30
2019-02-20T09:51:59.354Z,102126.52
2019-02-20T09:54:48.450Z,102122.54
2019-02-20T09:57:37.289Z,102125.04
2019-02-20T10:00:26.132Z,102119.77
2019-02-20T10:03:15.288Z,102119.53
2019-02-20T10:06:04.748Z,102118.40
2019-02-20T10:08:53.561Z,102120.02
2019-02-20T10:11:42.489Z,102116.02
2019-02-20T10:14:31.467Z,102118.16
2019-02-20T10:17:20.454Z,102115.66
2019-02-20T10:20:10.911Z,102111.07
2019-02-20T10:22:59.948Z,102116.17
2019-02-20T10:25:49.071Z,102119.17
2019-02-20T10:28:38.161Z,102124.98
2019-02-20T10:31:26.986Z,102126.39
2019-02-20T11:21:29.500Z,102137.20
2019-02-20T11:24:19.745Z,102136.81
2019-02-20T11:27:08.319Z,102135.06
2019-02-20T11:30:00.293Z,102137.80
2019-02-20T11:32:49.169Z,102136.50
2019-02-20T11:35:38.931Z,102141.66
2019-02-20T11:38:30.999Z,102153.23
2019-02-20T11:41:21.887Z,102150.82
2019-02-20T11:44:20.773Z,102140.72
2019-02-20T11:47:06.430Z,102141.84
2019-02-20T11:49:55.582Z,102152.40
2019-02-20T11:52:46.068Z,102143.14
2019-02-20T11:55:34.820Z,102153.88
2019-02-20T11:58:23.939Z,102150.05
2019-02-20T12:01:13.327Z,102145.97
2019-02-20T12:04:02.088Z,102144.94
2019-02-20T12:06:52.069Z,102145.84
2019-02-20T12:09:41.559Z,102137.91
2019-02-20T12:12:34.999Z,102132.24
2019-02-20T12:24:43.600Z,102122.61
2019-02-20T12:27:33.154Z,102125.84
2019-02-20T12:30:22.988Z,102133.27
2019-02-20T12:33:11.797Z,102136.22
2019-02-20T12:36:02.307Z,102139.45
2019-02-20T12:38:56.687Z,102137.75
2019-02-20T12:41:45.015Z,102142.55
2019-02-20T12:44:33.500Z,102148.24
2019-02-20T12:47:22.282Z,102144.69
2019-02-20T12:50:14.079Z,102141.94
2019-02-20T12:53:02.493Z,102149.23
2019-02-20T12:55:51.116Z,102146.89
2019-02-20T12:58:39.898Z,102148.02
2019-02-20T13:01:29.398Z,102139.42
2019-02-20T13:04:18.369Z,102140.64
2019-02-20T13:07:07.519Z,102143.59
2019-02-20T13:09:55.859Z,102136.69
2019-02-20T13:12:44.575Z,102140.73
2019-02-20T13:15:33.648Z,102139.28
2019-02-20T13:18:25.708Z,102129.11
2019-02-20T13:21:14.367Z,102133.25
2019-02-20T13:24:05.696Z,102128.64
2019-02-20T13:29:43.820Z,102134.77
2019-02-20T13:32:32.798Z,102134.36
2019-02-20T13:35:21.869Z,102135.16
2019-02-20T13:38:10.051Z,102133.13
2019-02-20T13:41:00.441Z,102128.37
2019-02-20T13:43:49.677Z,102129.45
2019-02-20T13:46:39.889Z,102129.92
2019-02-20T13:49:29.229Z,102133.73
2019-02-20T13:52:18.058Z,102125.77
2019-02-20T13:55:07.028Z,102114.34
2019-02-20T13:57:55.978Z,102110.22
2019-02-20T14:00:48.130Z,102114.63
2019-02-20T14:03:41.360Z,102116.67
2019-02-20T14:06:30.026Z,102115.77
2019-02-20T14:09:18.676Z,102112.06
2019-02-20T14:12:07.287Z,102104.77
2019-02-20T14:14:57.002Z,102108.17
2019-02-20T14:17:45.786Z,102104.20
2019-02-20T14:20:34.989Z,102107.64
2019-02-20T14:23:25.615Z,102105.12
2019-02-20T14:26:14.289Z,102101.58
2019-02-20T14:29:03.370Z,102101.13
2019-02-20T14:31:52.595Z,102099.84
2019-02-20T14:34:40.935Z,102105.58
2019-02-20T14:37:29.707Z,102106.23
2019-02-20T14:44:21.111Z,102106.07
2019-02-20T14:47:11.118Z,102100.64
